createdAt,value
2022-08-28T00:00:41.846Z,22.97
2022-08-28T00:03:44.710Z,23.01
2022-08-28T00:06:47.345Z,23.09
2022-08-28T00:09:50.116Z,23.68
2022-08-28T00:12:55.777Z,23.75
2022-08-28T00:16:01.125Z,23.71
2022-08-28T00:19:04.656Z,23.64
2022-08-28T00:22:07.651Z,23.41
2022-08-28T00:25:11.883Z,22.39
2022-08-28T00:28:23.437Z,21.89
2022-08-28T00:31:27.070Z,21.79
2022-08-28T00:34:33.524Z,21.99
2022-08-28T00:37:36.183Z,22.05
2022-08-28T00:40:41.257Z,22.08
2022-08-28T00:43:46.187Z,22.12
2022-08-28T00:46:51.485Z,22.08
2022-08-28T00:49:55.825Z,22.12
2022-08-28T00:53:01.102Z,22.20
2022-08-28T00:56:12.886Z,22.22
2022-08-28T00:59:19.262Z,22.25
2022-08-28T01:02:22.202Z,22.23
2022-08-28T01:05:26.684Z,22.24
2022-08-28T01:08:31.275Z,22.12
2022-08-28T01:11:34.546Z,22.12
2022-08-28T01:14:40.374Z,22.18
2022-08-28T01:17:47.991Z,22.13
2022-08-28T01:21:07.038Z,22.11
2022-08-28T01:24:14.853Z,22.11
2022-08-28T01:27:17.828Z,22.08
2022-08-28T01:30:22.918Z,22.10
2022-08-28T01:33:28.224Z,22.04
2022-08-28T01:36:31.970Z,21.95
2022-08-28T01:39:34.548Z,21.96
2022-08-28T01:42:42.440Z,21.88
2022-08-28T01:45:52.812Z,21.83
2022-08-28T01:48:55.672Z,21.80
2022-08-28T01:51:58.724Z,21.79
2022-08-28T01:55:02.333Z,21.70
2022-08-28T01:58:08.531Z,21.65
2022-08-28T02:01:14.131Z,21.66
2022-08-28T02:04:17.317Z,21.59
2022-08-28T02:07:19.949Z,21.64
2022-08-28T02:10:24.710Z,21.58
2022-08-28T02:13:27.583Z,21.47
2022-08-28T02:16:30.886Z,21.42
2022-08-28T02:19:33.374Z,21.49
2022-08-28T02:22:36.559Z,21.40
2022-08-28T02:25:39.503Z,21.34
2022-08-28T02:28:42.699Z,21.31
2022-08-28T02:31:45.122Z,21.24
2022-08-28T02:34:47.990Z,21.18
2022-08-28T02:37:51.664Z,21.01
2022-08-28T02:40:57.857Z,21.01
2022-08-28T02:44:00.407Z,20.94
2022-08-28T02:47:03.857Z,20.91
2022-08-28T02:50:08.404Z,20.84
2022-08-28T02:53:11.937Z,20.97
2022-08-28T02:56:14.443Z,20.98
2022-08-28T02:59:17.200Z,20.95
2022-08-28T03:02:19.943Z,21.00
2022-08-28T03:05:24.864Z,21.02
2022-08-28T03:08:28.510Z,20.94
2022-08-28T03:11:31.872Z,20.93
2022-08-28T03:14:34.456Z,21.03
2022-08-28T03:17:38.329Z,21.01
2022-08-28T03:20:41.794Z,21.06
2022-08-28T03:23:44.605Z,21.16
2022-08-28T03:26:48.036Z,21.18
2022-08-28T03:29:50.847Z,21.12
2022-08-28T03:32:54.027Z,21.00
2022-08-28T03:35:56.860Z,21.03
2022-08-28T03:39:01.843Z,21.13
2022-08-28T03:42:04.793Z,21.04
2022-08-28T03:45:11.638Z,20.96
2022-08-28T03:48:14.476Z,20.93
2022-08-28T03:51:22.419Z,20.84
2022-08-28T03:54:32.690Z,20.78
2022-08-28T03:57:35.868Z,20.62
2022-08-28T04:00:40.473Z,20.58
2022-08-28T04:03:44.413Z,20.61
2022-08-28T04:06:47.057Z,20.61
2022-08-28T04:09:50.269Z,20.52
2022-08-28T04:12:53.692Z,20.57
2022-08-28T04:16:10.778Z,20.46
2022-08-28T04:19:13.672Z,20.47
2022-08-28T04:22:16.434Z,20.56
2022-08-28T04:25:21.842Z,20.46
2022-08-28T04:28:25.919Z,20.41
2022-08-28T04:31:31.391Z,20.35
2022-08-28T04:34:37.703Z,20.37
2022-08-28T04:37:40.683Z,20.42
2022-08-28T04:40:44.148Z,20.42
2022-08-28T04:43:47.419Z,20.50
2022-08-28T04:46:50.184Z,20.50
2022-08-28T04:49:53.155Z,20.63
2022-08-28T04:52:55.952Z,20.73
2022-08-28T04:56:00.645Z,20.92
2022-08-28T04:59:04.417Z,21.01
2022-08-28T05:02:06.989Z,21.12
2022-08-28T05:05:10.461Z,21.20
2022-08-28T05:08:14.675Z,21.31
2022-08-28T05:11:33.715Z,21.44
2022-08-28T05:14:37.716Z,21.63
2022-08-28T05:17:40.529Z,21.75
2022-08-28T05:20:46.039Z,21.84
2022-08-28T05:23:51.302Z,21.92
2022-08-28T05:26:53.820Z,21.99
2022-08-28T05:30:01.213Z,22.03
2022-08-28T05:33:05.101Z,22.20
2022-08-28T05:36:08.704Z,22.32
2022-08-28T05:39:12.143Z,22.35
2022-08-28T05:42:14.956Z,22.55
2022-08-28T05:45:18.155Z,22.65
2022-08-28T05:48:21.008Z,22.56
2022-08-28T05:51:26.871Z,22.72
2022-08-28T05:54:30.420Z,22.91
2022-08-28T05:57:33.026Z,22.96
2022-08-28T06:00:35.787Z,22.96
2022-08-28T06:03:40.204Z,23.13
2022-08-28T06:06:43.554Z,23.31
2022-08-28T06:09:46.619Z,23.42
2022-08-28T06:12:49.216Z,23.57
2022-08-28T06:15:52.475Z,23.82
2022-08-28T06:18:56.006Z,24.13
2022-08-28T06:22:01.071Z,24.39
2022-08-28T06:25:14.113Z,24.44
2022-08-28T06:28:21.372Z,24.72
2022-08-28T06:31:26.468Z,24.99
2022-08-28T06:34:31.366Z,25.10
2022-08-28T06:37:33.872Z,25.20
2022-08-28T06:40:47.860Z,25.39
2022-08-28T06:43:50.374Z,25.57
2022-08-28T06:46:54.891Z,25.72
2022-08-28T06:49:57.348Z,25.62
2022-08-28T06:53:01.338Z,25.79
2022-08-28T06:56:07.682Z,26.12
2022-08-28T06:59:11.950Z,26.47
2022-08-28T07:02:14.977Z,26.49
2022-08-28T07:05:17.993Z,26.32
2022-08-28T07:08:20.536Z,26.02
2022-08-28T07:11:26.989Z,25.87
2022-08-28T07:14:29.540Z,25.71
2022-08-28T07:17:32.626Z,25.89
2022-08-28T07:20:35.102Z,26.00
2022-08-28T07:23:38.644Z,26.40
2022-08-28T07:26:42.181Z,26.44
2022-08-28T07:29:45.094Z,26.27
2022-08-28T07:32:49.760Z,26.14
2022-08-28T07:35:53.493Z,25.90
2022-08-28T07:38:57.230Z,25.75
2022-08-28T07:42:00.322Z,25.78
2022-08-28T07:45:03.795Z,25.97
2022-08-28T07:48:11.268Z,26.30
2022-08-28T07:51:14.209Z,26.60
2022-08-28T07:54:18.061Z,26.77
2022-08-28T07:57:21.248Z,26.98
2022-08-28T08:00:26.016Z,26.76
2022-08-28T08:03:30.570Z,26.94
2022-08-28T08:06:34.613Z,27.08
2022-08-28T08:09:40.459Z,27.06
2022-08-28T08:12:44.400Z,27.12
2022-08-28T08:15:47.408Z,27.07
2022-08-28T08:18:51.198Z,27.14
2022-08-28T08:21:55.034Z,27.11
2022-08-28T08:24:57.981Z,26.96
2022-08-28T08:28:00.889Z,27.14
2022-08-28T08:31:13.755Z,27.09
2022-08-28T08:34:16.666Z,26.96
2022-08-28T08:37:19.402Z,27.33
2022-08-28T08:40:22.459Z,28.06
2022-08-28T08:43:27.298Z,28.53
2022-08-28T08:46:51.160Z,28.75
2022-08-28T08:50:05.183Z,28.66
2022-08-28T08:53:48.207Z,28.32
2022-08-28T08:56:54.835Z,28.55
2022-08-28T08:59:57.979Z,28.61
2022-08-28T09:03:04.743Z,28.63
2022-08-28T09:06:20.038Z,28.79
2022-08-28T09:09:28.787Z,28.87
2022-08-28T09:12:44.037Z,28.90
2022-08-28T09:15:50.643Z,28.77
2022-08-28T09:18:56.947Z,28.96
2022-08-28T09:21:59.461Z,29.13
2022-08-28T09:25:02.332Z,29.20
2022-08-28T09:28:09.593Z,29.37
2022-08-28T09:31:31.673Z,29.48
2022-08-28T09:34:38.853Z,29.79
2022-08-28T09:37:42.648Z,29.62
2022-08-28T09:41:04.311Z,29.42
2022-08-28T09:44:07.128Z,29.48
2022-08-28T09:47:09.611Z,29.62
2022-08-28T09:50:29.521Z,29.35
2022-08-28T09:53:35.961Z,29.55
2022-08-28T09:56:42.086Z,29.68
2022-08-28T09:59:44.654Z,29.81
2022-08-28T10:03:03.355Z,29.91
2022-08-28T10:06:18.618Z,29.80
2022-08-28T10:09:29.842Z,30.02
2022-08-28T10:12:43.071Z,30.10
2022-08-28T10:16:24.779Z,30.11
2022-08-28T10:19:49.955Z,30.09
2022-08-28T10:23:33.993Z,29.79
2022-08-28T10:26:54.367Z,29.71
2022-08-28T10:30:13.187Z,30.18
2022-08-28T10:33:39.824Z,30.40
2022-08-28T10:36:49.173Z,30.33
2022-08-28T10:39:57.714Z,30.39
2022-08-28T10:43:13.610Z,30.30
2022-08-28T10:46:46.116Z,30.26
2022-08-28T10:49:52.631Z,30.31
2022-08-28T10:53:03.853Z,30.54
2022-08-28T10:56:56.397Z,30.90
2022-08-28T11:00:03.760Z,30.79
2022-08-28T11:03:32.938Z,31.11
2022-08-28T11:06:48.093Z,31.24
2022-08-28T11:09:50.762Z,31.48
2022-08-28T11:12:53.626Z,31.48
2022-08-28T11:15:56.323Z,31.23
2022-08-28T11:19:21.038Z,31.61
2022-08-28T11:22:28.371Z,31.86
2022-08-28T11:25:41.644Z,32.15
2022-08-28T11:28:47.541Z,32.27
2022-08-28T11:32:28.803Z,32.34
2022-08-28T11:35:50.326Z,32.59
2022-08-28T11:38:53.572Z,32.54
2022-08-28T11:42:11.460Z,32.62
2022-08-28T11:45:46.623Z,32.55
2022-08-28T11:48:53.894Z,32.66
2022-08-28T11:52:30.509Z,32.69
2022-08-28T11:55:50.427Z,32.32
2022-08-28T11:58:59.692Z,32.00
2022-08-28T12:02:39.381Z,31.97
2022-08-28T12:05:55.740Z,32.31
2022-08-28T12:08:58.344Z,32.44
2022-08-28T12:12:22.251Z,32.54
2022-08-28T12:15:27.797Z,32.22
2022-08-28T12:18:40.435Z,32.32
2022-08-28T12:21:43.747Z,32.62
2022-08-28T12:24:49.723Z,32.49
2022-08-28T12:27:53.732Z,32.21
2022-08-28T12:31:16.143Z,31.70
2022-08-28T12:34:39.558Z,31.44
2022-08-28T12:37:58.511Z,31.87
2022-08-28T12:41:02.831Z,32.03
2022-08-28T12:44:08.982Z,31.74
2022-08-28T12:47:16.369Z,31.41
2022-08-28T12:50:33.555Z,31.38
2022-08-28T12:53:42.308Z,31.34
2022-08-28T12:56:45.203Z,31.37
2022-08-28T12:59:50.218Z,31.33
2022-08-28T13:02:55.590Z,31.29
2022-08-28T13:06:07.625Z,31.36
2022-08-28T13:09:18.416Z,31.19
2022-08-28T13:12:34.887Z,31.43
2022-08-28T13:16:00.852Z,31.29
2022-08-28T13:19:06.635Z,31.05
2022-08-28T13:22:34.896Z,31.35
2022-08-28T13:25:38.103Z,31.27
2022-08-28T13:28:43.838Z,31.56
2022-08-28T13:31:59.709Z,31.85
2022-08-28T13:35:17.759Z,31.91
2022-08-28T13:38:24.013Z,31.77
2022-08-28T13:41:29.766Z,31.59
2022-08-28T13:44:52.795Z,31.90
2022-08-28T13:47:55.613Z,32.25
2022-08-28T13:51:07.072Z,32.45
2022-08-28T13:54:13.486Z,32.37
2022-08-28T13:57:16.628Z,32.69
2022-08-28T14:00:19.661Z,32.66
2022-08-28T14:03:41.264Z,33.00
2022-08-28T14:06:44.468Z,33.06
2022-08-28T14:09:47.465Z,32.83
2022-08-28T14:12:50.044Z,32.47
2022-08-28T14:15:54.445Z,32.16
2022-08-28T14:18:59.465Z,32.11
2022-08-28T14:22:02.824Z,32.31
2022-08-28T14:25:05.972Z,32.47
2022-08-28T14:28:09.082Z,32.51
2022-08-28T14:31:14.594Z,32.09
2022-08-28T14:34:21.326Z,32.10
2022-08-28T14:37:23.820Z,31.85
2022-08-28T14:40:26.766Z,32.15
2022-08-28T14:43:30.243Z,32.44
2022-08-28T14:46:36.303Z,32.85
2022-08-28T14:49:39.388Z,32.60
2022-08-28T14:52:42.912Z,32.96
2022-08-28T14:55:48.349Z,33.11
2022-08-28T14:58:51.636Z,33.39
2022-08-28T15:02:00.010Z,33.36
2022-08-28T15:05:02.866Z,33.78
2022-08-28T15:08:09.586Z,34.77
2022-08-28T15:11:18.657Z,34.74
2022-08-28T15:14:21.352Z,34.77
2022-08-28T15:17:34.545Z,34.90
2022-08-28T15:20:43.582Z,35.53
2022-08-28T15:23:49.699Z,36.61
2022-08-28T15:26:52.933Z,37.65
2022-08-28T15:29:55.739Z,38.31
2022-08-28T15:32:58.444Z,38.13
2022-08-28T15:36:01.258Z,38.70
2022-08-28T15:39:23.930Z,38.65
2022-08-28T15:42:26.694Z,38.18
2022-08-28T15:45:37.402Z,36.94
2022-08-28T15:48:40.469Z,36.96
2022-08-28T15:51:43.218Z,36.92
2022-08-28T15:54:47.169Z,37.24
2022-08-28T15:57:50.246Z,36.89
2022-08-28T16:00:53.161Z,37.56
2022-08-28T16:03:56.081Z,37.60
2022-08-28T16:07:00.662Z,37.07
2022-08-28T16:10:07.173Z,36.51
2022-08-28T16:13:09.775Z,35.43
2022-08-28T16:16:12.900Z,35.09
2022-08-28T16:19:15.587Z,33.79
2022-08-28T16:22:19.050Z,32.51
2022-08-28T16:25:21.602Z,32.27
2022-08-28T16:28:24.544Z,32.73
2022-08-28T16:31:29.854Z,32.99
2022-08-28T16:34:33.499Z,32.55
2022-08-28T16:37:39.810Z,31.73
2022-08-28T16:40:44.861Z,30.91
2022-08-28T16:43:48.562Z,30.34
2022-08-28T16:46:52.681Z,29.79
2022-08-28T16:49:59.718Z,29.19
2022-08-28T16:53:06.323Z,28.76
2022-08-28T16:56:11.502Z,28.47
2022-08-28T16:59:20.435Z,28.25
2022-08-28T17:02:27.060Z,28.10
2022-08-28T17:05:30.104Z,27.95
2022-08-28T17:08:32.686Z,27.57
2022-08-28T17:11:35.961Z,27.53
2022-08-28T17:14:38.971Z,27.36
2022-08-28T17:17:42.932Z,27.21
2022-08-28T17:21:04.549Z,26.97
2022-08-28T17:24:09.672Z,26.90
2022-08-28T17:27:12.885Z,26.81
2022-08-28T17:30:18.203Z,26.72
2022-08-28T17:33:20.882Z,26.58
2022-08-28T17:36:33.161Z,26.49
2022-08-28T17:39:37.235Z,26.37
2022-08-28T17:42:40.639Z,26.32
2022-08-28T17:45:43.224Z,26.16
2022-08-28T17:48:53.611Z,26.07
2022-08-28T17:51:58.979Z,25.99
2022-08-28T17:55:02.406Z,25.95
2022-08-28T17:58:05.067Z,25.88
2022-08-28T18:01:07.975Z,25.90
2022-08-28T18:04:12.247Z,25.76
2022-08-28T18:07:15.238Z,25.72
2022-08-28T18:10:18.976Z,25.63
2022-08-28T18:13:21.545Z,25.62
2022-08-28T18:16:31.139Z,25.66
2022-08-28T18:19:34.260Z,25.66
2022-08-28T18:22:38.383Z,25.79
2022-08-28T18:25:50.468Z,25.80
2022-08-28T18:28:54.245Z,25.66
2022-08-28T18:31:57.250Z,25.64
2022-08-28T18:35:00.087Z,25.57
2022-08-28T18:38:03.481Z,25.60
2022-08-28T18:41:08.604Z,25.57
2022-08-28T18:44:11.720Z,25.52
2022-08-28T18:47:14.573Z,25.53
2022-08-28T18:50:17.414Z,25.48
2022-08-28T18:53:22.734Z,25.40
2022-08-28T18:56:25.243Z,25.43
2022-08-28T18:59:33.373Z,25.37
2022-08-28T19:02:40.784Z,25.38
2022-08-28T19:05:44.588Z,25.35
2022-08-28T19:08:47.098Z,25.22
2022-08-28T19:11:50.004Z,25.10
2022-08-28T19:14:57.559Z,25.06
2022-08-28T19:18:01.432Z,24.96
2022-08-28T19:21:10.150Z,24.86
2022-08-28T19:24:18.027Z,24.81
2022-08-28T19:27:20.698Z,24.75
2022-08-28T19:30:23.620Z,24.75
2022-08-28T19:33:26.348Z,24.60
2022-08-28T19:36:30.519Z,24.49
2022-08-28T19:39:33.199Z,24.45
2022-08-28T19:42:36.633Z,24.38
2022-08-28T19:45:43.707Z,24.50
2022-08-28T19:48:48.045Z,24.44
2022-08-28T19:51:51.125Z,24.30
2022-08-28T19:54:54.109Z,24.21
2022-08-28T19:57:58.392Z,24.26
2022-08-28T20:01:01.687Z,24.16
2022-08-28T20:04:06.849Z,24.15
2022-08-28T20:07:09.812Z,24.06
2022-08-28T20:10:14.698Z,24.09
2022-08-28T20:13:17.907Z,24.04
2022-08-28T20:16:21.462Z,23.98
2022-08-28T20:19:24.140Z,23.90
2022-08-28T20:22:28.088Z,23.88
2022-08-28T20:25:31.024Z,23.85
2022-08-28T20:28:33.973Z,23.74
2022-08-28T20:31:42.160Z,23.66
2022-08-28T20:34:44.973Z,23.66
2022-08-28T20:37:47.531Z,23.62
2022-08-28T20:40:51.130Z,23.48
2022-08-28T20:43:53.927Z,23.45
2022-08-28T20:46:56.781Z,23.44
2022-08-28T20:49:59.295Z,23.40
2022-08-28T20:53:03.868Z,23.30
2022-08-28T20:56:09.016Z,23.30
2022-08-28T20:59:12.707Z,23.29
2022-08-28T21:02:18.707Z,23.26
2022-08-28T21:05:21.639Z,23.17
2022-08-28T21:08:24.262Z,23.18
2022-08-28T21:11:27.683Z,23.11
2022-08-28T21:14:30.362Z,22.97
2022-08-28T21:17:33.170Z,22.87
2022-08-28T21:20:36.137Z,22.88
2022-08-28T21:23:41.281Z,22.89
2022-08-28T21:26:46.852Z,22.82
2022-08-28T21:29:49.842Z,22.79
2022-08-28T21:32:52.887Z,22.74
2022-08-28T21:35:55.834Z,22.68
2022-08-28T21:38:58.613Z,22.65
2022-08-28T21:42:01.358Z,22.72
2022-08-28T21:45:11.206Z,22.62
2022-08-28T21:48:14.987Z,22.58
2022-08-28T21:51:19.063Z,22.51
2022-08-28T21:54:23.114Z,22.57
2022-08-28T21:57:25.929Z,22.53
2022-08-28T22:00:28.711Z,22.50
2022-08-28T22:03:31.811Z,22.48
2022-08-28T22:06:34.610Z,22.44
2022-08-28T22:09:38.016Z,22.46
2022-08-28T22:12:40.634Z,22.38
2022-08-28T22:15:45.258Z,22.25
2022-08-28T22:18:47.897Z,22.21
2022-08-28T22:22:09.360Z,22.26
2022-08-28T22:25:11.998Z,22.22
2022-08-28T22:28:14.931Z,22.05
2022-08-28T22:31:17.616Z,22.03
2022-08-28T22:34:20.890Z,21.95
2022-08-28T22:37:23.694Z,21.98
2022-08-28T22:40:27.612Z,21.97
2022-08-28T22:43:30.165Z,21.95
2022-08-28T22:46:32.892Z,22.00
2022-08-28T22:49:35.950Z,21.96
2022-08-28T22:52:45.690Z,21.84
2022-08-28T22:55:48.302Z,21.83
2022-08-28T22:58:51.128Z,21.78
2022-08-28T23:01:54.612Z,21.84
2022-08-28T23:04:57.425Z,21.76
2022-08-28T23:07:59.945Z,21.64
2022-08-28T23:11:06.602Z,21.69
2022-08-28T23:14:09.282Z,21.62
2022-08-28T23:17:12.053Z,21.57
2022-08-28T23:20:17.951Z,21.54
2022-08-28T23:23:21.013Z,21.54
2022-08-28T23:26:24.887Z,21.46
2022-08-28T23:29:27.629Z,21.39
2022-08-28T23:32:30.105Z,21.39
2022-08-28T23:35:33.446Z,21.37
2022-08-28T23:38:38.432Z,21.35
2022-08-28T23:41:43.491Z,21.32
2022-08-28T23:44:45.974Z,21.28
2022-08-28T23:47:48.866Z,21.21
2022-08-28T23:50:51.383Z,21.25
2022-08-28T23:53:54.249Z,21.12
2022-08-28T23:56:56.894Z,21.21
2022-08-28T23:59:59.755Z,21.08
